createdAt,value
2022-08-31T00:01:30.734Z,18.40
2022-08-31T00:06:34.771Z,18.30
2022-08-31T00:11:37.906Z,18.30
2022-08-31T00:16:47.520Z,18.30
2022-08-31T00:21:50.549Z,18.30
2022-08-31T00:26:54.833Z,18.20
2022-08-31T00:31:57.206Z,18.20
2022-08-31T00:37:01.047Z,18.20
2022-08-31T00:42:08.696Z,18.20
2022-08-31T00:47:11.408Z,18.20
2022-08-31T00:52:18.214Z,18.20
2022-08-31T00:57:34.196Z,18.10
2022-08-31T01:02:37.967Z,18.10
2022-08-31T01:07:42.025Z,18.10
2022-08-31T01:12:47.023Z,18.10
2022-08-31T01:17:56.834Z,18.10
2022-08-31T01:23:08.150Z,18.10
2022-08-31T01:28:12.348Z,18.00
2022-08-31T01:33:14.626Z,18.00
2022-08-31T01:38:17.050Z,18.00
2022-08-31T01:43:19.561Z,18.00
2022-08-31T01:48:23.809Z,18.00
2022-08-31T01:53:26.868Z,17.90
2022-08-31T01:58:29.300Z,18.00
2022-08-31T02:03:49.789Z,18.00
2022-08-31T02:08:54.589Z,17.90
2022-08-31T02:13:57.229Z,17.90
2022-08-31T02:18:59.480Z,17.90
2022-08-31T02:24:04.320Z,17.90
2022-08-31T02:29:09.409Z,17.90
2022-08-31T02:34:11.731Z,17.90
2022-08-31T02:39:15.624Z,17.90
2022-08-31T02:44:19.813Z,17.90
2022-08-31T02:49:22.880Z,17.80
2022-08-31T02:54:29.692Z,17.80
2022-08-31T02:59:42.717Z,17.80
2022-08-31T03:04:50.748Z,17.80
2022-08-31T03:09:59.912Z,17.80
2022-08-31T03:15:10.959Z,17.90
2022-08-31T03:20:17.655Z,17.80
2022-08-31T03:25:24.236Z,17.80
2022-08-31T03:30:31.885Z,17.80
2022-08-31T03:35:48.000Z,17.80
2022-08-31T03:40:54.866Z,17.80
2022-08-31T03:45:58.300Z,17.80
2022-08-31T03:51:04.856Z,17.80
2022-08-31T03:56:10.626Z,17.80
2022-08-31T04:01:22.519Z,17.80
2022-08-31T04:06:50.735Z,17.80
2022-08-31T04:12:13.070Z,17.80
2022-08-31T04:17:41.823Z,17.80
2022-08-31T04:23:06.873Z,17.80
2022-08-31T04:28:15.512Z,17.80
2022-08-31T04:33:17.986Z,17.80
2022-08-31T04:38:23.093Z,17.80
2022-08-31T04:43:25.799Z,17.80
2022-08-31T04:48:38.038Z,17.90
2022-08-31T04:53:45.000Z,17.90
2022-08-31T04:58:54.044Z,18.00
2022-08-31T05:04:00.080Z,18.10
2022-08-31T05:09:09.554Z,18.10
2022-08-31T05:14:21.023Z,18.10
2022-08-31T05:19:36.958Z,18.20
2022-08-31T05:24:46.377Z,18.20
2022-08-31T05:29:56.671Z,18.30
2022-08-31T05:35:36.979Z,18.30
2022-08-31T05:40:43.960Z,18.30
2022-08-31T05:45:47.133Z,18.40
2022-08-31T05:51:04.043Z,18.40
2022-08-31T05:56:25.893Z,18.40
2022-08-31T06:01:35.044Z,18.40
2022-08-31T06:06:56.016Z,18.40
2022-08-31T06:12:07.927Z,18.40
2022-08-31T06:17:24.431Z,18.40
2022-08-31T06:22:46.966Z,18.40
2022-08-31T06:27:59.922Z,18.40
2022-08-31T06:33:05.213Z,18.50
2022-08-31T06:38:25.523Z,18.50
2022-08-31T06:43:59.313Z,18.50
2022-08-31T06:49:23.775Z,18.50
2022-08-31T06:54:34.768Z,18.60
2022-08-31T06:59:55.699Z,18.70
2022-08-31T07:05:24.549Z,18.90
2022-08-31T07:10:30.011Z,19.10
2022-08-31T07:15:35.232Z,19.30
2022-08-31T07:20:42.827Z,19.60
2022-08-31T07:25:55.159Z,20.10
2022-08-31T07:31:00.278Z,20.20
2022-08-31T07:36:10.769Z,20.00
2022-08-31T07:42:05.322Z,19.90
2022-08-31T07:47:19.425Z,19.80
2022-08-31T07:52:29.415Z,19.80
2022-08-31T07:58:03.840Z,19.70
2022-08-31T08:03:13.716Z,19.80
2022-08-31T08:08:39.900Z,19.90
2022-08-31T08:19:43.643Z,20.00
2022-08-31T08:25:03.599Z,20.00
2022-08-31T08:30:27.128Z,20.00
2022-08-31T08:35:32.897Z,20.20
2022-08-31T08:40:43.968Z,20.30
2022-08-31T08:46:15.211Z,20.30
2022-08-31T08:51:34.379Z,20.30
2022-08-31T08:57:06.509Z,20.50
2022-08-31T09:02:17.352Z,20.70
2022-08-31T09:07:39.340Z,21.10
2022-08-31T09:12:51.703Z,21.30
2022-08-31T09:18:26.490Z,21.60
2022-08-31T09:24:02.301Z,21.50
2022-08-31T09:29:36.247Z,21.50
2022-08-31T09:34:42.565Z,21.50
2022-08-31T09:40:01.419Z,21.60
2022-08-31T09:45:30.729Z,22.00
2022-08-31T09:50:53.527Z,22.20
2022-08-31T09:56:22.821Z,22.50
2022-08-31T10:01:40.278Z,22.70
2022-08-31T10:06:58.266Z,23.00
2022-08-31T10:12:06.094Z,23.00
2022-08-31T10:17:32.383Z,23.00
2022-08-31T10:22:50.966Z,23.00
2022-08-31T10:28:12.193Z,23.20
2022-08-31T10:33:37.528Z,23.60
2022-08-31T10:38:47.592Z,23.80
2022-08-31T10:44:02.694Z,23.90
2022-08-31T10:49:10.087Z,24.20
2022-08-31T10:54:44.765Z,24.40
2022-08-31T10:59:55.964Z,24.00
2022-08-31T11:05:22.080Z,23.70
2022-08-31T11:10:47.237Z,23.60
2022-08-31T11:16:02.707Z,23.80
2022-08-31T11:21:20.250Z,24.20
2022-08-31T11:32:37.855Z,24.20
2022-08-31T11:37:55.500Z,24.30
2022-08-31T11:43:01.435Z,24.00
2022-08-31T11:48:44.481Z,24.20
2022-08-31T11:53:56.262Z,24.60
2022-08-31T11:59:37.696Z,24.70
2022-08-31T12:04:52.734Z,24.70
2022-08-31T12:10:25.495Z,24.80
2022-08-31T12:16:46.864Z,24.70
2022-08-31T12:22:24.606Z,24.50
2022-08-31T12:27:47.198Z,24.60
2022-08-31T12:33:21.180Z,24.80
2022-08-31T12:39:19.415Z,25.40
2022-08-31T12:44:41.620Z,26.00
2022-08-31T12:50:23.951Z,25.90
2022-08-31T12:55:56.144Z,25.50
2022-08-31T13:01:21.328Z,25.70
2022-08-31T13:06:35.825Z,25.90
2022-08-31T13:17:11.508Z,25.60
2022-08-31T13:22:28.569Z,25.60
2022-08-31T13:27:32.281Z,25.30
2022-08-31T13:32:34.792Z,25.20
2022-08-31T13:37:56.648Z,25.30
2022-08-31T13:43:01.755Z,25.30
2022-08-31T13:48:39.020Z,25.10
2022-08-31T13:53:46.740Z,25.10
2022-08-31T13:58:50.491Z,25.30
2022-08-31T14:04:01.900Z,25.00
2022-08-31T14:09:17.865Z,24.90
2022-08-31T14:14:35.073Z,25.00
2022-08-31T14:19:43.330Z,24.70
2022-08-31T14:24:47.930Z,24.70
2022-08-31T14:29:52.284Z,24.70
2022-08-31T14:34:54.607Z,24.70
2022-08-31T14:40:05.630Z,24.40
2022-08-31T14:45:19.404Z,24.60
2022-08-31T14:50:26.441Z,24.70
2022-08-31T14:55:30.859Z,24.50
2022-08-31T15:00:48.679Z,24.60
2022-08-31T15:06:03.254Z,24.50
2022-08-31T15:11:11.284Z,24.20
2022-08-31T15:16:23.534Z,24.20
2022-08-31T15:21:37.796Z,24.10
2022-08-31T15:26:59.595Z,24.20
2022-08-31T15:32:10.759Z,24.20
2022-08-31T15:37:24.693Z,24.30
2022-08-31T15:42:58.948Z,24.40
2022-08-31T15:48:21.470Z,24.50
2022-08-31T15:53:56.509Z,24.50
2022-08-31T15:59:33.081Z,24.30
2022-08-31T16:04:44.443Z,24.00
2022-08-31T16:10:03.551Z,23.90
2022-08-31T16:15:32.962Z,24.20
2022-08-31T16:20:53.083Z,24.10
2022-08-31T16:25:57.527Z,23.80
2022-08-31T16:31:02.959Z,23.50
2022-08-31T16:36:26.546Z,23.30
2022-08-31T16:41:39.062Z,23.00
2022-08-31T16:46:55.848Z,22.80
2022-08-31T16:57:53.186Z,22.40
2022-08-31T17:02:57.713Z,22.30
2022-08-31T17:08:02.272Z,22.30
2022-08-31T17:13:05.814Z,22.30
2022-08-31T17:18:11.276Z,22.20
2022-08-31T17:23:23.268Z,22.20
2022-08-31T17:28:25.953Z,22.10
2022-08-31T17:33:31.395Z,22.10
2022-08-31T17:38:33.599Z,22.20
2022-08-31T17:43:39.239Z,22.20
2022-08-31T17:48:47.270Z,22.30
2022-08-31T17:59:23.832Z,22.70
2022-08-31T18:04:28.328Z,23.10
2022-08-31T18:09:34.893Z,22.70
2022-08-31T18:14:40.289Z,22.40
2022-08-31T18:19:53.891Z,22.20
2022-08-31T18:24:58.368Z,22.10
2022-08-31T18:30:01.194Z,22.00
2022-08-31T18:35:11.487Z,21.90
2022-08-31T18:40:40.416Z,21.90
2022-08-31T18:45:48.646Z,21.70
2022-08-31T18:50:51.786Z,21.60
2022-08-31T18:56:11.737Z,21.40
2022-08-31T19:01:16.474Z,21.30
2022-08-31T19:06:26.926Z,21.20
2022-08-31T19:11:33.451Z,21.10
2022-08-31T19:16:40.187Z,21.10
2022-08-31T19:21:45.392Z,20.90
2022-08-31T19:26:54.030Z,20.90
2022-08-31T19:32:02.132Z,20.80
2022-08-31T19:37:08.037Z,20.80
2022-08-31T19:42:40.167Z,20.80
2022-08-31T19:48:01.352Z,20.80
2022-08-31T19:53:05.758Z,20.70
2022-08-31T19:58:18.559Z,20.70
2022-08-31T20:03:22.727Z,20.70
2022-08-31T20:08:27.788Z,20.70
2022-08-31T20:13:38.427Z,20.60
2022-08-31T20:18:44.556Z,20.70
2022-08-31T20:23:53.181Z,20.60
2022-08-31T20:29:01.364Z,20.70
2022-08-31T20:34:03.610Z,20.60
2022-08-31T20:39:12.411Z,20.60
2022-08-31T20:44:32.593Z,20.60
2022-08-31T20:49:39.656Z,20.50
2022-08-31T20:54:44.852Z,20.50
2022-08-31T20:59:54.607Z,20.50
2022-08-31T21:05:10.291Z,20.40
2022-08-31T21:10:36.294Z,20.40
2022-08-31T21:15:46.795Z,20.30
2022-08-31T21:20:52.501Z,20.30
2022-08-31T21:25:58.107Z,20.20
2022-08-31T21:31:12.949Z,20.20
2022-08-31T21:36:27.180Z,20.20
2022-08-31T21:41:32.189Z,20.20
2022-08-31T21:46:36.152Z,20.10
2022-08-31T21:51:45.730Z,20.10
2022-08-31T21:56:53.725Z,19.90
2022-08-31T22:02:00.440Z,19.90
2022-08-31T22:07:03.309Z,19.90
2022-08-31T22:12:10.889Z,19.90
2022-08-31T22:17:14.603Z,19.90
2022-08-31T22:22:21.921Z,19.90
2022-08-31T22:27:24.671Z,19.90
2022-08-31T22:32:30.564Z,19.90
2022-08-31T22:37:35.450Z,19.80
2022-08-31T22:42:43.058Z,19.80
2022-08-31T22:47:50.235Z,19.70
2022-08-31T22:52:53.549Z,19.60
2022-08-31T22:57:55.833Z,19.50
2022-08-31T23:03:01.073Z,19.50
2022-08-31T23:08:03.515Z,19.50
2022-08-31T23:13:05.979Z,19.50
2022-08-31T23:18:10.082Z,19.50
2022-08-31T23:23:13.821Z,19.50
2022-08-31T23:28:16.178Z,19.60
2022-08-31T23:33:20.509Z,19.50
2022-08-31T23:38:29.325Z,19.50
2022-08-31T23:43:32.426Z,19.50
2022-08-31T23:48:34.875Z,19.50
2022-08-31T23:53:46.290Z,19.50
2022-08-31T23:58:51.340Z,19.50
